Zeynalabdin Tagiyev — 9HLD8 — position and weather

sailwx.info

Track history (hours):
 
Tides and Currents Weather Stations Pressure Air Temp Water Temp Dewpoint Dewpoint Depression Visibility Wind Speed Wind Dir Waves Ship Positions

Zeynalabdin Tagiyev

Last reported at 2017-Feb-22 04:15 UTC. Time now 2017-Feb-22 15:26 UTC.
Position N 38°49' E 008°56'.

Length 140 m; draft 3.7 m.

Type: Cargo ship. MMSI: 256107000.

Date/timePositionNaut miles runAvg speedWind from/ knotsBaromVisibWave heightAir tempDewpointWater temp
2017-Feb-22 04:15N 38°49' E 008°56'7 9.6
2017-Feb-22 03:33N 38°49' E 008°48'274 9.5
2017-Feb-20 22:33N 40°27' E 003°15'1111.0
2017-Feb-20 21:33N 40°30' E 003°02'1010.5
2017-Feb-20 20:33N 40°35' E 002°49'1010.3
2017-Feb-20 19:33N 40°38' E 002°36'1010.2
2017-Feb-20 18:33N 40°42' E 002°24'10 9.7
2017-Feb-20 17:33N 40°45' E 002°12'9 9.4
2017-Feb-20 16:33N 40°49' E 002°01'10 9.5
2017-Feb-20 15:32N 40°52' E 001°49'10 9.6
2017-Feb-20 14:33N 40°56' E 001°37'10 9.7
2017-Feb-20 13:31N 41°00' E 001°25'  
2017-Feb-18 09:20N 41°06' E 001°14'0 0.0
2017-Feb-18 08:26N 41°06' E 001°14'0 0.0
2017-Feb-18 07:32N 41°06' E 001°14'0 0.0
2017-Feb-18 06:27N 41°06' E 001°14'0 0.0
2017-Feb-18 05:32N 41°06' E 001°14'0 0.0
2017-Feb-18 04:29N 41°06' E 001°14'0 0.0
2017-Feb-18 03:10N 41°06' E 001°14'0 0.0
2017-Feb-18 01:08N 41°06' E 001°14'0 0.0
2017-Feb-18 00:28N 41°06' E 001°14'0 0.0
2017-Feb-17 22:29N 41°06' E 001°14'0 0.0
2017-Feb-17 21:11N 41°06' E 001°14'0 0.0
2017-Feb-17 19:31N 41°06' E 001°14'0 0.0
2017-Feb-17 18:12N 41°06' E 001°14'0 0.0
2017-Feb-17 16:18N 41°06' E 001°14'  
2017-Feb-14 17:06N 41°06' E 001°16'0 0.0
2017-Feb-14 16:32N 41°06' E 001°16'  
Track history (hours):
 
Tides and Currents Weather Stations Pressure Air Temp Water Temp Dewpoint Dewpoint Depression Visibility Wind Speed Wind Dir Waves Ship Positions

Zeynalabdin Tagiyev

Last reported at 2017-Feb-22 04:15 UTC. Time now 2017-Feb-22 15:26 UTC.
Position N 38°49' E 008°56'.

Length 140 m; draft 3.7 m.

Type: Cargo ship. MMSI: 256107000.

Date/timePositionNaut miles runAvg speedWind from/ knotsBaromVisibWave heightAir tempDewpointWater temp
2017-Feb-22 04:15N 38°49' E 008°56'7 9.6
2017-Feb-22 03:33N 38°49' E 008°48'274 9.5
2017-Feb-20 22:33N 40°27' E 003°15'1111.0
2017-Feb-20 21:33N 40°30' E 003°02'1010.5
2017-Feb-20 20:33N 40°35' E 002°49'1010.3
2017-Feb-20 19:33N 40°38' E 002°36'1010.2
2017-Feb-20 18:33N 40°42' E 002°24'10 9.7
2017-Feb-20 17:33N 40°45' E 002°12'9 9.4
2017-Feb-20 16:33N 40°49' E 002°01'10 9.5
2017-Feb-20 15:32N 40°52' E 001°49'10 9.6
2017-Feb-20 14:33N 40°56' E 001°37'10 9.7
2017-Feb-20 13:31N 41°00' E 001°25'  
2017-Feb-18 09:20N 41°06' E 001°14'0 0.0
2017-Feb-18 08:26N 41°06' E 001°14'0 0.0
2017-Feb-18 07:32N 41°06' E 001°14'0 0.0
2017-Feb-18 06:27N 41°06' E 001°14'0 0.0
2017-Feb-18 05:32N 41°06' E 001°14'0 0.0
2017-Feb-18 04:29N 41°06' E 001°14'0 0.0
2017-Feb-18 03:10N 41°06' E 001°14'0 0.0
2017-Feb-18 01:08N 41°06' E 001°14'0 0.0
2017-Feb-18 00:28N 41°06' E 001°14'0 0.0
2017-Feb-17 22:29N 41°06' E 001°14'0 0.0
2017-Feb-17 21:11N 41°06' E 001°14'0 0.0
2017-Feb-17 19:31N 41°06' E 001°14'0 0.0
2017-Feb-17 18:12N 41°06' E 001°14'0 0.0
2017-Feb-17 16:18N 41°06' E 001°14'  
2017-Feb-14 17:06N 41°06' E 001°16'0 0.0
2017-Feb-14 16:32N 41°06' E 001°16'  

Dump ship's entire track history